createdAt,value
2023-05-22T00:03:44.757Z,6.50
2023-05-22T00:08:51.661Z,7.00
2023-05-22T00:13:58.576Z,6.90
2023-05-22T00:19:07.283Z,7.30
2023-05-22T00:24:14.426Z,6.70
2023-05-22T00:29:22.109Z,5.60
2023-05-22T00:34:29.215Z,6.70
2023-05-22T00:39:36.367Z,5.80
2023-05-22T00:44:43.485Z,5.80
2023-05-22T00:49:50.699Z,7.40
2023-05-22T00:54:57.774Z,6.10
2023-05-22T01:00:06.191Z,6.20
2023-05-22T01:05:18.179Z,6.10
2023-05-22T01:10:25.821Z,5.50
2023-05-22T01:15:41.178Z,6.10
2023-05-22T01:20:53.879Z,6.10
2023-05-22T01:26:21.930Z,5.70
2023-05-22T01:31:31.403Z,6.80
2023-05-22T01:36:39.774Z,5.80
2023-05-22T01:41:47.572Z,9.60
2023-05-22T01:46:55.065Z,5.50
2023-05-22T01:52:10.058Z,5.80
2023-05-22T01:57:25.090Z,5.70
2023-05-22T02:02:33.406Z,6.00
2023-05-22T02:07:43.058Z,5.90
2023-05-22T02:12:50.417Z,5.90
2023-05-22T02:18:02.046Z,5.90
2023-05-22T02:23:09.774Z,5.40
2023-05-22T02:28:16.712Z,6.00
2023-05-22T02:33:27.044Z,9.20
2023-05-22T02:38:34.177Z,7.70
2023-05-22T02:43:41.300Z,6.00
2023-05-22T02:48:48.277Z,5.30
2023-05-22T02:53:55.904Z,6.60
2023-05-22T02:59:03.301Z,5.70
2023-05-22T03:04:12.983Z,5.90
2023-05-22T03:09:21.977Z,5.80
2023-05-22T03:14:29.220Z,6.70
2023-05-22T03:19:36.643Z,6.30
2023-05-22T03:24:43.829Z,6.40
2023-05-22T03:29:51.861Z,7.40
2023-05-22T03:34:59.691Z,6.50
2023-05-22T03:40:08.843Z,7.40
2023-05-22T03:45:16.147Z,7.60
2023-05-22T03:50:23.363Z,8.10
2023-05-22T03:55:31.734Z,8.20
2023-05-22T04:00:39.515Z,7.80
2023-05-22T04:05:46.647Z,7.90
2023-05-22T04:10:54.624Z,7.90
2023-05-22T04:16:02.424Z,7.90
2023-05-22T04:21:10.345Z,7.10
2023-05-22T04:26:20.966Z,8.40
2023-05-22T04:31:28.059Z,8.20
2023-05-22T04:36:36.042Z,8.00
2023-05-22T04:41:43.052Z,6.90
2023-05-22T04:46:50.407Z,5.80
2023-05-22T04:51:57.603Z,5.40
2023-05-22T04:57:05.175Z,6.50
2023-05-22T05:02:12.614Z,6.30
2023-05-22T05:07:19.586Z,5.80
2023-05-22T05:12:26.566Z,6.10
2023-05-22T05:17:33.567Z,5.30
2023-05-22T05:22:44.086Z,5.90
2023-05-22T05:27:52.455Z,5.50
2023-05-22T05:33:01.414Z,6.60
2023-05-22T05:38:23.898Z,6.50
2023-05-22T05:43:30.852Z,7.30
2023-05-22T05:48:44.032Z,6.80
2023-05-22T05:53:52.149Z,6.90
2023-05-22T05:59:00.194Z,6.50
2023-05-22T06:04:29.515Z,7.30
2023-05-22T06:09:36.790Z,5.10
2023-05-22T06:15:08.730Z,6.60
2023-05-22T06:20:16.467Z,4.90
2023-05-22T06:25:26.091Z,5.20
2023-05-22T06:35:46.481Z,5.90
2023-05-22T06:40:53.535Z,5.70
2023-05-22T06:46:05.567Z,6.60
2023-05-22T06:51:21.185Z,6.00
2023-05-22T06:56:31.097Z,5.30
2023-05-22T07:01:42.914Z,6.00
2023-05-22T07:11:59.030Z,5.30
2023-05-22T07:17:06.177Z,6.00
2023-05-22T07:22:17.998Z,5.30
2023-05-22T07:27:25.114Z,5.60
2023-05-22T07:32:34.203Z,5.80
2023-05-22T07:37:42.377Z,5.50
2023-05-22T07:42:49.399Z,4.30
2023-05-22T07:47:59.065Z,6.00
2023-05-22T07:53:06.543Z,5.20
2023-05-22T07:58:16.756Z,4.70
2023-05-22T08:03:25.385Z,5.40
2023-05-22T08:08:33.839Z,5.50
2023-05-22T08:13:40.701Z,5.40
2023-05-22T08:18:48.096Z,5.40
2023-05-22T08:23:55.037Z,5.90
2023-05-22T08:29:05.320Z,4.40
2023-05-22T08:34:12.192Z,4.70
2023-05-22T08:39:19.466Z,4.60
2023-05-22T08:44:26.723Z,5.00
2023-05-22T08:49:33.758Z,4.00
2023-05-22T08:54:44.176Z,4.00
2023-05-22T08:59:51.757Z,4.60
2023-05-22T09:04:59.131Z,3.30
2023-05-22T09:10:07.347Z,3.90
2023-05-22T09:15:16.698Z,4.60
2023-05-22T09:20:23.779Z,4.40
2023-05-22T09:25:31.890Z,3.90
2023-05-22T09:30:39.633Z,4.90
2023-05-22T09:35:49.731Z,5.10
2023-05-22T09:40:57.655Z,5.40
2023-05-22T09:46:05.636Z,4.80
2023-05-22T09:51:13.822Z,4.50
2023-05-22T09:56:35.245Z,4.00
2023-05-22T10:01:47.770Z,5.20
2023-05-22T10:06:58.440Z,3.70
2023-05-22T10:12:10.451Z,4.40
2023-05-22T10:17:18.628Z,3.90
2023-05-22T10:22:27.182Z,4.30
2023-05-22T10:27:34.200Z,4.60
2023-05-22T10:32:47.518Z,3.30
2023-05-22T10:37:56.696Z,3.90
2023-05-22T10:43:05.140Z,4.00
2023-05-22T10:48:13.739Z,3.30
2023-05-22T10:53:28.291Z,5.80
2023-05-22T10:58:37.476Z,6.30
2023-05-22T11:04:01.695Z,5.50
2023-05-22T11:09:31.023Z,3.40
2023-05-22T11:19:45.322Z,3.90
2023-05-22T11:24:52.453Z,4.10
2023-05-22T11:30:00.671Z,3.80
2023-05-22T11:35:14.984Z,3.80
2023-05-22T11:40:24.551Z,4.00
2023-05-22T11:45:31.685Z,3.60
2023-05-22T11:50:42.296Z,3.70
2023-05-22T11:55:50.819Z,3.20
2023-05-22T12:01:02.549Z,4.70
2023-05-22T12:06:10.695Z,3.10
2023-05-22T12:11:17.906Z,3.10
2023-05-22T12:16:25.832Z,3.10
2023-05-22T12:21:33.916Z,4.80
2023-05-22T12:31:47.471Z,3.10
2023-05-22T12:36:54.406Z,4.00
2023-05-22T12:42:01.386Z,2.80
2023-05-22T12:47:09.264Z,3.80
2023-05-22T12:52:16.785Z,3.10
2023-05-22T12:57:23.973Z,3.00
2023-05-22T13:02:31.134Z,3.40
2023-05-22T13:12:46.980Z,3.10
2023-05-22T13:17:54.211Z,2.90
2023-05-22T13:23:01.474Z,3.20
2023-05-22T13:28:08.385Z,4.00
2023-05-22T13:33:15.536Z,3.10
2023-05-22T13:38:22.779Z,2.90
2023-05-22T13:43:29.702Z,3.80
2023-05-22T13:48:36.598Z,2.80
2023-05-22T13:53:43.727Z,2.80
2023-05-22T13:58:50.882Z,3.90
2023-05-22T14:03:58.083Z,4.20
2023-05-22T14:09:07.219Z,3.40
2023-05-22T14:14:14.334Z,3.30
2023-05-22T14:19:22.722Z,3.20
2023-05-22T14:24:29.750Z,4.30
2023-05-22T14:29:36.656Z,4.00
2023-05-22T14:34:44.085Z,3.80
2023-05-22T14:39:51.002Z,3.90
2023-05-22T14:44:58.804Z,3.40
2023-05-22T14:50:18.201Z,4.10
2023-05-22T14:55:27.825Z,3.20
2023-05-22T15:00:34.905Z,3.00
2023-05-22T15:05:42.034Z,3.30
2023-05-22T15:10:49.306Z,3.90
2023-05-22T15:15:58.094Z,4.40
2023-05-22T15:21:05.346Z,3.90
2023-05-22T15:26:12.328Z,3.00
2023-05-22T15:31:19.916Z,2.80
2023-05-22T15:36:28.270Z,3.70
2023-05-22T15:41:35.575Z,3.00
2023-05-22T15:46:42.601Z,4.00
2023-05-22T15:51:50.062Z,3.60
2023-05-22T15:56:56.957Z,4.90
2023-05-22T16:02:04.183Z,4.60
2023-05-22T16:07:11.213Z,5.00
2023-05-22T16:12:18.251Z,3.40
2023-05-22T16:17:25.120Z,3.60
2023-05-22T16:27:55.086Z,3.30
2023-05-22T16:33:02.186Z,3.40
2023-05-22T16:38:12.166Z,3.50
2023-05-22T16:43:19.139Z,3.60
2023-05-22T16:48:26.127Z,6.10
2023-05-22T16:53:33.883Z,4.20
2023-05-22T16:58:41.876Z,4.30
2023-05-22T17:03:49.063Z,3.70
2023-05-22T17:08:56.225Z,4.20
2023-05-22T17:14:03.287Z,4.10
2023-05-22T17:19:10.333Z,6.70
2023-05-22T17:24:17.226Z,4.20
2023-05-22T17:29:25.101Z,4.80
2023-05-22T17:34:34.250Z,5.20
2023-05-22T17:39:41.300Z,4.50
2023-05-22T17:44:48.314Z,4.40
2023-05-22T17:49:55.230Z,5.00
2023-05-22T17:55:02.661Z,7.70
2023-05-22T18:00:12.203Z,5.90
2023-05-22T18:10:26.836Z,6.00
2023-05-22T18:15:34.004Z,4.50
2023-05-22T18:20:41.210Z,6.20
2023-05-22T18:25:48.303Z,5.10
2023-05-22T18:30:55.432Z,7.40
2023-05-22T18:36:02.512Z,4.90
2023-05-22T18:41:10.178Z,6.10
2023-05-22T18:46:17.297Z,6.30
2023-05-22T18:51:24.891Z,5.20
2023-05-22T18:56:32.789Z,9.00
2023-05-22T19:01:39.872Z,6.70
2023-05-22T19:06:46.847Z,6.10
2023-05-22T19:11:54.393Z,5.60
2023-05-22T19:17:01.316Z,5.50
2023-05-22T19:22:08.519Z,5.50
2023-05-22T19:27:15.775Z,6.80
2023-05-22T19:32:22.663Z,6.80
2023-05-22T19:37:29.583Z,5.80
2023-05-22T19:42:38.308Z,6.50
2023-05-22T19:47:45.534Z,5.90
2023-05-22T19:52:52.392Z,5.80
2023-05-22T19:57:59.249Z,6.60
2023-05-22T20:03:06.538Z,5.90
2023-05-22T20:08:14.290Z,7.20
2023-05-22T20:13:21.691Z,6.00
2023-05-22T20:18:28.538Z,6.70
2023-05-22T20:23:35.430Z,7.10
2023-05-22T20:28:42.383Z,6.40
2023-05-22T20:33:49.286Z,7.00
2023-05-22T20:38:58.551Z,7.20
2023-05-22T20:44:06.555Z,6.70
2023-05-22T20:49:13.699Z,8.70
2023-05-22T20:54:20.788Z,7.00
2023-05-22T20:59:29.152Z,9.70
2023-05-22T21:04:36.292Z,7.60
2023-05-22T21:09:43.283Z,6.60
2023-05-22T21:14:50.675Z,8.40
2023-05-22T21:19:57.572Z,7.60
2023-05-22T21:25:04.815Z,7.40
2023-05-22T21:30:16.209Z,11.00
2023-05-22T21:35:23.145Z,7.80
2023-05-22T21:40:30.490Z,8.20
2023-05-22T21:45:38.972Z,9.40
2023-05-22T21:50:48.260Z,8.30
2023-05-22T21:55:55.287Z,7.70
2023-05-22T22:01:04.468Z,7.90
2023-05-22T22:06:11.937Z,8.10
2023-05-22T22:11:19.060Z,8.50
2023-05-22T22:16:28.185Z,9.10
2023-05-22T22:21:35.346Z,9.10
2023-05-22T22:26:42.811Z,8.10
2023-05-22T22:31:50.100Z,9.10
2023-05-22T22:36:57.532Z,8.80
2023-05-22T22:42:05.324Z,8.80
2023-05-22T22:47:12.456Z,8.40
2023-05-22T22:52:19.600Z,9.30
2023-05-22T22:57:26.644Z,8.30
2023-05-22T23:02:33.678Z,8.90
2023-05-22T23:07:40.793Z,9.40
2023-05-22T23:12:48.650Z,9.00
2023-05-22T23:17:55.802Z,10.00
2023-05-22T23:23:02.878Z,9.80
2023-05-22T23:28:09.907Z,11.10
2023-05-22T23:33:16.965Z,9.50
2023-05-22T23:38:23.869Z,9.20
2023-05-22T23:43:30.889Z,9.30
2023-05-22T23:48:37.991Z,10.40
2023-05-22T23:53:44.958Z,9.50
2023-05-22T23:58:52.142Z,8.70
